sensor_id;sensor_type;location;lat;lon;timestamp;temperature;humidity
27667;DHT22;15074;50.940;5.282;2023-04-07T00:01:35;9.00;99.90
27667;DHT22;15074;50.940;5.282;2023-04-07T00:04:00;9.00;99.90
27667;DHT22;15074;50.940;5.282;2023-04-07T00:06:26;9.00;99.90
27667;DHT22;15074;50.940;5.282;2023-04-07T00:08:53;9.00;99.90
27667;DHT22;15074;50.940;5.282;2023-04-07T00:11:18;9.00;99.90
27667;DHT22;15074;50.940;5.282;2023-04-07T00:13:44;9.00;99.90
27667;DHT22;15074;50.940;5.282;2023-04-07T00:16:10;9.00;99.90
27667;DHT22;15074;50.940;5.282;2023-04-07T00:18:35;9.10;99.90
27667;DHT22;15074;50.940;5.282;2023-04-07T00:21:01;9.10;99.90
27667;DHT22;15074;50.940;5.282;2023-04-07T00:23:27;9.10;99.90
27667;DHT22;15074;50.940;5.282;2023-04-07T00:25:52;9.10;99.90
27667;DHT22;15074;50.940;5.282;2023-04-07T00:28:18;9.00;99.90
27667;DHT22;15074;50.940;5.282;2023-04-07T00:30:44;8.90;99.90
27667;DHT22;15074;50.940;5.282;2023-04-07T00:33:09;8.90;99.90
27667;DHT22;15074;50.940;5.282;2023-04-07T00:35:35;8.90;99.90
27667;DHT22;15074;50.940;5.282;2023-04-07T00:38:00;8.80;99.90
27667;DHT22;15074;50.940;5.282;2023-04-07T00:40:27;8.80;99.90
27667;DHT22;15074;50.940;5.282;2023-04-07T00:42:52;8.90;99.90
27667;DHT22;15074;50.940;5.282;2023-04-07T00:45:18;8.90;99.90
27667;DHT22;15074;50.940;5.282;2023-04-07T00:47:44;8.80;99.90
27667;DHT22;15074;50.940;5.282;2023-04-07T00:50:10;8.80;99.90
27667;DHT22;15074;50.940;5.282;2023-04-07T00:52:35;8.80;99.90
27667;DHT22;15074;50.940;5.282;2023-04-07T00:55:01;8.90;99.90
27667;DHT22;15074;50.940;5.282;2023-04-07T00:57:27;9.00;99.90
27667;DHT22;15074;50.940;5.282;2023-04-07T00:59:53;9.00;99.90
27667;DHT22;15074;50.940;5.282;2023-04-07T01:02:32;9.00;99.90
27667;DHT22;15074;50.940;5.282;2023-04-07T01:05:53;9.00;99.90
27667;DHT22;15074;50.940;5.282;2023-04-07T01:08:29;9.00;99.90
27667;DHT22;15074;50.940;5.282;2023-04-07T01:11:08;9.00;99.90
27667;DHT22;15074;50.940;5.282;2023-04-07T01:13:40;9.00;99.90
27667;DHT22;15074;50.940;5.282;2023-04-07T01:16:11;8.90;99.90
27667;DHT22;15074;50.940;5.282;2023-04-07T01:18:38;8.90;99.90
27667;DHT22;15074;50.940;5.282;2023-04-07T01:21:13;8.80;99.90
27667;DHT22;15074;50.940;5.282;2023-04-07T01:26:29;8.80;99.90
27667;DHT22;15074;50.940;5.282;2023-04-07T01:31:40;8.80;99.90
27667;DHT22;15074;50.940;5.282;2023-04-07T01:34:09;8.80;99.90
27667;DHT22;15074;50.940;5.282;2023-04-07T01:36:35;8.80;99.90
27667;DHT22;15074;50.940;5.282;2023-04-07T01:39:01;8.90;99.90
27667;DHT22;15074;50.940;5.282;2023-04-07T01:41:27;8.90;99.90
27667;DHT22;15074;50.940;5.282;2023-04-07T01:43:53;8.80;99.90
27667;DHT22;15074;50.940;5.282;2023-04-07T01:46:20;8.80;99.90
27667;DHT22;15074;50.940;5.282;2023-04-07T01:48:47;8.70;99.90
27667;DHT22;15074;50.940;5.282;2023-04-07T01:51:15;8.70;99.90
27667;DHT22;15074;50.940;5.282;2023-04-07T01:53:46;8.70;99.90
27667;DHT22;15074;50.940;5.282;2023-04-07T01:56:13;8.60;99.90
27667;DHT22;15074;50.940;5.282;2023-04-07T01:58:38;8.50;99.90
27667;DHT22;15074;50.940;5.282;2023-04-07T02:01:05;8.50;99.90
27667;DHT22;15074;50.940;5.282;2023-04-07T02:03:35;8.50;99.90
27667;DHT22;15074;50.940;5.282;2023-04-07T02:06:06;8.30;99.90
27667;DHT22;15074;50.940;5.282;2023-04-07T02:08:35;8.30;99.90
27667;DHT22;15074;50.940;5.282;2023-04-07T02:11:01;8.30;99.90
27667;DHT22;15074;50.940;5.282;2023-04-07T02:13:29;8.20;99.90
27667;DHT22;15074;50.940;5.282;2023-04-07T02:15:56;8.20;99.90
27667;DHT22;15074;50.940;5.282;2023-04-07T02:18:22;8.10;99.90
27667;DHT22;15074;50.940;5.282;2023-04-07T02:20:51;8.10;99.90
27667;DHT22;15074;50.940;5.282;2023-04-07T02:23:17;7.90;99.90
27667;DHT22;15074;50.940;5.282;2023-04-07T02:25:42;8.00;99.90
27667;DHT22;15074;50.940;5.282;2023-04-07T02:28:08;8.00;99.90
27667;DHT22;15074;50.940;5.282;2023-04-07T02:30:34;8.00;99.90
27667;DHT22;15074;50.940;5.282;2023-04-07T02:33:00;8.10;99.90
27667;DHT22;15074;50.940;5.282;2023-04-07T02:35:26;8.20;99.90
27667;DHT22;15074;50.940;5.282;2023-04-07T02:37:52;8.20;99.90
27667;DHT22;15074;50.940;5.282;2023-04-07T02:40:18;8.30;99.90
27667;DHT22;15074;50.940;5.282;2023-04-07T02:42:44;8.30;99.90
27667;DHT22;15074;50.940;5.282;2023-04-07T02:45:10;8.40;99.90
27667;DHT22;15074;50.940;5.282;2023-04-07T02:47:37;8.40;99.90
27667;DHT22;15074;50.940;5.282;2023-04-07T02:50:03;8.40;99.90
27667;DHT22;15074;50.940;5.282;2023-04-07T02:52:28;8.40;99.90
27667;DHT22;15074;50.940;5.282;2023-04-07T02:54:54;8.40;99.90
27667;DHT22;15074;50.940;5.282;2023-04-07T02:57:20;8.40;99.90
27667;DHT22;15074;50.940;5.282;2023-04-07T02:59:46;8.40;99.90
27667;DHT22;15074;50.940;5.282;2023-04-07T03:02:11;8.40;99.90
27667;DHT22;15074;50.940;5.282;2023-04-07T03:04:37;8.50;99.90
27667;DHT22;15074;50.940;5.282;2023-04-07T03:07:03;8.60;99.90
27667;DHT22;15074;50.940;5.282;2023-04-07T03:09:28;8.50;99.90
27667;DHT22;15074;50.940;5.282;2023-04-07T03:11:54;8.50;99.90
27667;DHT22;15074;50.940;5.282;2023-04-07T03:14:20;8.50;99.90
27667;DHT22;15074;50.940;5.282;2023-04-07T03:16:46;8.50;99.90
27667;DHT22;15074;50.940;5.282;2023-04-07T03:19:11;8.50;99.90
27667;DHT22;15074;50.940;5.282;2023-04-07T03:21:37;8.50;99.90
27667;DHT22;15074;50.940;5.282;2023-04-07T03:24:04;8.50;99.90
27667;DHT22;15074;50.940;5.282;2023-04-07T03:26:30;8.50;99.90
27667;DHT22;15074;50.940;5.282;2023-04-07T03:28:56;8.50;99.90
27667;DHT22;15074;50.940;5.282;2023-04-07T03:31:22;8.50;99.90
27667;DHT22;15074;50.940;5.282;2023-04-07T03:33:48;8.50;99.90
27667;DHT22;15074;50.940;5.282;2023-04-07T03:36:14;8.60;99.90
27667;DHT22;15074;50.940;5.282;2023-04-07T03:38:41;8.60;99.90
27667;DHT22;15074;50.940;5.282;2023-04-07T03:41:07;8.70;99.90
27667;DHT22;15074;50.940;5.282;2023-04-07T03:43:32;8.70;99.90
27667;DHT22;15074;50.940;5.282;2023-04-07T03:45:58;8.80;99.90
27667;DHT22;15074;50.940;5.282;2023-04-07T03:48:24;8.80;99.90
27667;DHT22;15074;50.940;5.282;2023-04-07T03:50:49;8.90;99.90
27667;DHT22;15074;50.940;5.282;2023-04-07T03:53:15;8.80;99.90
27667;DHT22;15074;50.940;5.282;2023-04-07T03:55:41;8.90;99.90
27667;DHT22;15074;50.940;5.282;2023-04-07T03:58:08;8.80;99.90
27667;DHT22;15074;50.940;5.282;2023-04-07T04:00:34;8.80;99.90
27667;DHT22;15074;50.940;5.282;2023-04-07T04:02:59;8.70;99.90
27667;DHT22;15074;50.940;5.282;2023-04-07T04:05:25;8.80;99.90
27667;DHT22;15074;50.940;5.282;2023-04-07T04:07:51;8.70;99.90
27667;DHT22;15074;50.940;5.282;2023-04-07T04:10:18;8.70;99.90
27667;DHT22;15074;50.940;5.282;2023-04-07T04:12:45;8.70;99.90
27667;DHT22;15074;50.940;5.282;2023-04-07T04:15:11;8.70;99.90
27667;DHT22;15074;50.940;5.282;2023-04-07T04:17:36;8.70;99.90
27667;DHT22;15074;50.940;5.282;2023-04-07T04:20:02;8.60;99.90
27667;DHT22;15074;50.940;5.282;2023-04-07T04:22:28;8.50;99.90
27667;DHT22;15074;50.940;5.282;2023-04-07T04:24:54;8.30;99.90
27667;DHT22;15074;50.940;5.282;2023-04-07T04:27:19;8.30;99.90
27667;DHT22;15074;50.940;5.282;2023-04-07T04:29:46;8.30;99.90
27667;DHT22;15074;50.940;5.282;2023-04-07T04:32:11;8.20;99.90
27667;DHT22;15074;50.940;5.282;2023-04-07T04:34:38;8.20;99.90
27667;DHT22;15074;50.940;5.282;2023-04-07T04:37:06;8.20;99.90
27667;DHT22;15074;50.940;5.282;2023-04-07T04:39:32;8.20;99.90
27667;DHT22;15074;50.940;5.282;2023-04-07T04:41:58;8.20;99.90
27667;DHT22;15074;50.940;5.282;2023-04-07T04:44:23;8.20;99.90
27667;DHT22;15074;50.940;5.282;2023-04-07T04:46:49;8.20;99.90
27667;DHT22;15074;50.940;5.282;2023-04-07T04:49:15;8.20;99.90
27667;DHT22;15074;50.940;5.282;2023-04-07T04:51:41;8.20;99.90
27667;DHT22;15074;50.940;5.282;2023-04-07T04:54:06;8.10;99.90
27667;DHT22;15074;50.940;5.282;2023-04-07T04:56:33;8.00;99.90
27667;DHT22;15074;50.940;5.282;2023-04-07T04:58:58;8.00;99.90
27667;DHT22;15074;50.940;5.282;2023-04-07T05:01:24;7.90;99.90
27667;DHT22;15074;50.940;5.282;2023-04-07T05:03:50;8.00;99.90
27667;DHT22;15074;50.940;5.282;2023-04-07T05:06:15;7.90;99.90
27667;DHT22;15074;50.940;5.282;2023-04-07T05:08:41;7.80;99.90
27667;DHT22;15074;50.940;5.282;2023-04-07T05:11:07;7.70;99.90
27667;DHT22;15074;50.940;5.282;2023-04-07T05:13:33;7.70;99.90
27667;DHT22;15074;50.940;5.282;2023-04-07T05:15:58;7.50;99.90
27667;DHT22;15074;50.940;5.282;2023-04-07T05:18:24;7.50;99.90
27667;DHT22;15074;50.940;5.282;2023-04-07T05:20:50;7.50;99.90
27667;DHT22;15074;50.940;5.282;2023-04-07T05:23:15;7.50;99.90
27667;DHT22;15074;50.940;5.282;2023-04-07T05:25:41;7.50;99.90
27667;DHT22;15074;50.940;5.282;2023-04-07T05:28:07;7.40;99.90
27667;DHT22;15074;50.940;5.282;2023-04-07T05:30:32;7.40;99.90
27667;DHT22;15074;50.940;5.282;2023-04-07T05:32:58;7.40;99.90
27667;DHT22;15074;50.940;5.282;2023-04-07T05:35:24;7.40;99.90
27667;DHT22;15074;50.940;5.282;2023-04-07T05:37:49;7.50;99.90
27667;DHT22;15074;50.940;5.282;2023-04-07T05:40:15;7.50;99.90
27667;DHT22;15074;50.940;5.282;2023-04-07T05:42:41;7.40;99.90
27667;DHT22;15074;50.940;5.282;2023-04-07T05:45:08;7.50;99.90
27667;DHT22;15074;50.940;5.282;2023-04-07T05:47:34;7.50;99.90
27667;DHT22;15074;50.940;5.282;2023-04-07T05:49:59;7.60;99.90
27667;DHT22;15074;50.940;5.282;2023-04-07T05:52:25;7.70;99.90
27667;DHT22;15074;50.940;5.282;2023-04-07T05:54:51;7.70;99.90
27667;DHT22;15074;50.940;5.282;2023-04-07T05:57:17;7.80;99.90
27667;DHT22;15074;50.940;5.282;2023-04-07T05:59:42;7.80;99.90
27667;DHT22;15074;50.940;5.282;2023-04-07T06:02:08;7.80;99.90
27667;DHT22;15074;50.940;5.282;2023-04-07T06:04:34;7.70;99.90
27667;DHT22;15074;50.940;5.282;2023-04-07T06:07:00;7.80;99.90
27667;DHT22;15074;50.940;5.282;2023-04-07T06:09:26;8.00;99.90
27667;DHT22;15074;50.940;5.282;2023-04-07T06:11:52;8.00;99.90
27667;DHT22;15074;50.940;5.282;2023-04-07T06:14:17;8.00;99.90
27667;DHT22;15074;50.940;5.282;2023-04-07T06:16:43;8.10;99.90
27667;DHT22;15074;50.940;5.282;2023-04-07T06:19:10;8.10;99.90
27667;DHT22;15074;50.940;5.282;2023-04-07T06:21:35;8.10;99.90
27667;DHT22;15074;50.940;5.282;2023-04-07T06:24:01;8.20;99.90
27667;DHT22;15074;50.940;5.282;2023-04-07T06:26:27;8.30;99.90
27667;DHT22;15074;50.940;5.282;2023-04-07T06:28:53;8.30;99.90
27667;DHT22;15074;50.940;5.282;2023-04-07T06:31:18;8.30;99.90
27667;DHT22;15074;50.940;5.282;2023-04-07T06:33:45;8.40;99.90
27667;DHT22;15074;50.940;5.282;2023-04-07T06:36:11;8.30;99.90
27667;DHT22;15074;50.940;5.282;2023-04-07T06:38:37;8.40;99.90
27667;DHT22;15074;50.940;5.282;2023-04-07T06:41:02;8.50;99.90
27667;DHT22;15074;50.940;5.282;2023-04-07T06:43:29;8.60;99.90
27667;DHT22;15074;50.940;5.282;2023-04-07T06:45:55;8.50;99.90
27667;DHT22;15074;50.940;5.282;2023-04-07T06:48:21;8.40;99.90
27667;DHT22;15074;50.940;5.282;2023-04-07T06:50:51;8.50;99.90
27667;DHT22;15074;50.940;5.282;2023-04-07T06:53:16;8.50;99.90
27667;DHT22;15074;50.940;5.282;2023-04-07T06:55:42;8.40;99.90
27667;DHT22;15074;50.940;5.282;2023-04-07T06:58:08;8.60;99.90
27667;DHT22;15074;50.940;5.282;2023-04-07T07:00:34;8.70;99.90
27667;DHT22;15074;50.940;5.282;2023-04-07T07:03:00;8.80;99.90
27667;DHT22;15074;50.940;5.282;2023-04-07T07:05:26;8.90;99.90
27667;DHT22;15074;50.940;5.282;2023-04-07T07:07:52;9.10;99.90
27667;DHT22;15074;50.940;5.282;2023-04-07T07:10:17;9.10;99.90
27667;DHT22;15074;50.940;5.282;2023-04-07T07:12:45;9.10;99.90
27667;DHT22;15074;50.940;5.282;2023-04-07T07:15:10;9.10;99.90
27667;DHT22;15074;50.940;5.282;2023-04-07T07:17:36;9.30;99.90
27667;DHT22;15074;50.940;5.282;2023-04-07T07:20:02;9.30;99.90
27667;DHT22;15074;50.940;5.282;2023-04-07T07:22:27;9.30;99.90
27667;DHT22;15074;50.940;5.282;2023-04-07T07:25:00;9.40;99.90
27667;DHT22;15074;50.940;5.282;2023-04-07T07:27:26;9.60;99.90
27667;DHT22;15074;50.940;5.282;2023-04-07T07:29:52;9.70;99.90
27667;DHT22;15074;50.940;5.282;2023-04-07T07:32:17;9.90;99.90
27667;DHT22;15074;50.940;5.282;2023-04-07T07:34:43;10.10;99.90
27667;DHT22;15074;50.940;5.282;2023-04-07T07:37:08;10.30;99.90
27667;DHT22;15074;50.940;5.282;2023-04-07T07:39:35;10.70;99.90
27667;DHT22;15074;50.940;5.282;2023-04-07T07:42:01;11.00;99.90
27667;DHT22;15074;50.940;5.282;2023-04-07T07:44:26;11.10;99.90
27667;DHT22;15074;50.940;5.282;2023-04-07T07:46:52;11.30;99.90
27667;DHT22;15074;50.940;5.282;2023-04-07T07:49:18;11.50;99.90
27667;DHT22;15074;50.940;5.282;2023-04-07T07:51:43;11.40;99.90
27667;DHT22;15074;50.940;5.282;2023-04-07T07:54:11;11.40;99.90
27667;DHT22;15074;50.940;5.282;2023-04-07T07:56:36;11.70;99.90
27667;DHT22;15074;50.940;5.282;2023-04-07T07:59:03;11.80;99.90
27667;DHT22;15074;50.940;5.282;2023-04-07T08:01:30;11.50;99.90
27667;DHT22;15074;50.940;5.282;2023-04-07T08:03:56;11.60;99.90
27667;DHT22;15074;50.940;5.282;2023-04-07T08:06:22;11.40;99.90
27667;DHT22;15074;50.940;5.282;2023-04-07T08:08:47;11.60;99.90
27667;DHT22;15074;50.940;5.282;2023-04-07T08:11:13;11.40;99.90
27667;DHT22;15074;50.940;5.282;2023-04-07T08:13:39;11.50;99.90
27667;DHT22;15074;50.940;5.282;2023-04-07T08:16:05;11.40;99.90
27667;DHT22;15074;50.940;5.282;2023-04-07T08:18:31;11.20;99.90
27667;DHT22;15074;50.940;5.282;2023-04-07T08:20:57;11.20;99.90
27667;DHT22;15074;50.940;5.282;2023-04-07T08:23:22;11.00;99.90
27667;DHT22;15074;50.940;5.282;2023-04-07T08:25:48;10.90;99.90
27667;DHT22;15074;50.940;5.282;2023-04-07T08:28:13;10.80;99.90
27667;DHT22;15074;50.940;5.282;2023-04-07T08:30:40;10.80;99.90
27667;DHT22;15074;50.940;5.282;2023-04-07T08:33:05;10.80;99.90
27667;DHT22;15074;50.940;5.282;2023-04-07T08:35:31;11.10;99.90
27667;DHT22;15074;50.940;5.282;2023-04-07T08:37:57;11.30;99.90
27667;DHT22;15074;50.940;5.282;2023-04-07T08:40:23;11.30;99.90
27667;DHT22;15074;50.940;5.282;2023-04-07T08:42:48;11.60;99.90
27667;DHT22;15074;50.940;5.282;2023-04-07T08:45:16;11.90;99.90
27667;DHT22;15074;50.940;5.282;2023-04-07T08:47:43;12.30;99.90
27667;DHT22;15074;50.940;5.282;2023-04-07T08:50:11;13.40;99.90
27667;DHT22;15074;50.940;5.282;2023-04-07T08:52:43;15.00;99.90
27667;DHT22;15074;50.940;5.282;2023-04-07T08:55:11;16.60;99.90
27667;DHT22;15074;50.940;5.282;2023-04-07T08:57:37;17.00;99.90
27667;DHT22;15074;50.940;5.282;2023-04-07T09:00:04;17.40;99.90
27667;DHT22;15074;50.940;5.282;2023-04-07T09:02:38;16.60;99.90
27667;DHT22;15074;50.940;5.282;2023-04-07T09:05:06;16.00;99.90
27667;DHT22;15074;50.940;5.282;2023-04-07T09:07:33;15.60;99.90
27667;DHT22;15074;50.940;5.282;2023-04-07T09:09:59;15.40;99.90
27667;DHT22;15074;50.940;5.282;2023-04-07T09:12:27;14.80;99.90
27667;DHT22;15074;50.940;5.282;2023-04-07T09:14:53;14.60;99.90
27667;DHT22;15074;50.940;5.282;2023-04-07T09:17:19;14.20;99.90
27667;DHT22;15074;50.940;5.282;2023-04-07T09:19:46;14.10;99.90
27667;DHT22;15074;50.940;5.282;2023-04-07T09:22:11;14.00;99.90
27667;DHT22;15074;50.940;5.282;2023-04-07T09:24:39;14.20;99.90
27667;DHT22;15074;50.940;5.282;2023-04-07T09:27:17;14.20;99.90
27667;DHT22;15074;50.940;5.282;2023-04-07T09:29:45;13.60;99.90
27667;DHT22;15074;50.940;5.282;2023-04-07T09:35:16;12.80;99.90
27667;DHT22;15074;50.940;5.282;2023-04-07T09:37:42;12.20;99.90
27667;DHT22;15074;50.940;5.282;2023-04-07T09:40:09;12.10;99.90
27667;DHT22;15074;50.940;5.282;2023-04-07T09:42:44;12.10;99.90
27667;DHT22;15074;50.940;5.282;2023-04-07T09:45:10;12.20;99.90
27667;DHT22;15074;50.940;5.282;2023-04-07T09:47:36;12.40;99.90
27667;DHT22;15074;50.940;5.282;2023-04-07T09:50:02;12.50;99.90
27667;DHT22;15074;50.940;5.282;2023-04-07T09:52:50;12.40;99.90
27667;DHT22;15074;50.940;5.282;2023-04-07T09:55:21;12.60;99.90
27667;DHT22;15074;50.940;5.282;2023-04-07T09:57:51;12.80;99.90
27667;DHT22;15074;50.940;5.282;2023-04-07T10:00:17;13.20;99.90
27667;DHT22;15074;50.940;5.282;2023-04-07T10:02:43;13.80;99.90
27667;DHT22;15074;50.940;5.282;2023-04-07T10:05:09;14.10;99.90
27667;DHT22;15074;50.940;5.282;2023-04-07T10:07:35;14.20;99.90
27667;DHT22;15074;50.940;5.282;2023-04-07T10:10:02;14.10;99.90
27667;DHT22;15074;50.940;5.282;2023-04-07T10:12:29;14.00;99.90
27667;DHT22;15074;50.940;5.282;2023-04-07T10:14:57;14.10;99.90
27667;DHT22;15074;50.940;5.282;2023-04-07T10:17:24;14.30;99.90
27667;DHT22;15074;50.940;5.282;2023-04-07T10:19:50;14.20;99.90
27667;DHT22;15074;50.940;5.282;2023-04-07T10:22:17;14.00;99.90
27667;DHT22;15074;50.940;5.282;2023-04-07T10:24:58;14.20;99.90
27667;DHT22;15074;50.940;5.282;2023-04-07T10:27:55;14.10;99.90
27667;DHT22;15074;50.940;5.282;2023-04-07T10:30:26;14.20;99.90
27667;DHT22;15074;50.940;5.282;2023-04-07T10:32:53;14.10;99.90
27667;DHT22;15074;50.940;5.282;2023-04-07T10:35:19;14.00;99.90
27667;DHT22;15074;50.940;5.282;2023-04-07T10:40:38;13.50;99.90
27667;DHT22;15074;50.940;5.282;2023-04-07T10:43:05;13.40;99.90
27667;DHT22;15074;50.940;5.282;2023-04-07T10:48:21;13.60;99.90
27667;DHT22;15074;50.940;5.282;2023-04-07T10:53:31;14.50;99.90
27667;DHT22;15074;50.940;5.282;2023-04-07T10:55:58;14.60;99.90
27667;DHT22;15074;50.940;5.282;2023-04-07T10:58:30;14.20;99.90
27667;DHT22;15074;50.940;5.282;2023-04-07T11:03:39;13.60;99.90
27667;DHT22;15074;50.940;5.282;2023-04-07T11:06:07;13.60;99.90
27667;DHT22;15074;50.940;5.282;2023-04-07T11:08:34;14.20;99.90
27667;DHT22;15074;50.940;5.282;2023-04-07T11:10:59;14.70;99.90
27667;DHT22;15074;50.940;5.282;2023-04-07T11:13:26;15.30;99.90
27667;DHT22;15074;50.940;5.282;2023-04-07T11:15:52;15.90;99.90
27667;DHT22;15074;50.940;5.282;2023-04-07T11:18:21;16.50;99.90
27667;DHT22;15074;50.940;5.282;2023-04-07T11:20:56;17.20;99.90
27667;DHT22;15074;50.940;5.282;2023-04-07T11:23:24;17.90;99.90
27667;DHT22;15074;50.940;5.282;2023-04-07T11:25:52;18.30;99.90
27667;DHT22;15074;50.940;5.282;2023-04-07T11:28:18;17.80;99.90
27667;DHT22;15074;50.940;5.282;2023-04-07T11:30:50;17.50;99.90
27667;DHT22;15074;50.940;5.282;2023-04-07T11:33:17;16.80;99.90
27667;DHT22;15074;50.940;5.282;2023-04-07T11:35:57;16.30;99.90
27667;DHT22;15074;50.940;5.282;2023-04-07T11:38:28;16.30;99.90
27667;DHT22;15074;50.940;5.282;2023-04-07T11:40:55;15.80;99.90
27667;DHT22;15074;50.940;5.282;2023-04-07T11:43:23;15.30;99.90
27667;DHT22;15074;50.940;5.282;2023-04-07T11:46:12;14.80;99.90
27667;DHT22;15074;50.940;5.282;2023-04-07T11:48:41;14.80;99.90
27667;DHT22;15074;50.940;5.282;2023-04-07T11:51:17;15.20;99.90
27667;DHT22;15074;50.940;5.282;2023-04-07T11:53:43;15.80;99.90
27667;DHT22;15074;50.940;5.282;2023-04-07T11:56:11;15.80;99.90
27667;DHT22;15074;50.940;5.282;2023-04-07T11:58:52;15.50;99.90
27667;DHT22;15074;50.940;5.282;2023-04-07T12:01:20;15.30;99.90
27667;DHT22;15074;50.940;5.282;2023-04-07T12:04:01;15.10;99.90
27667;DHT22;15074;50.940;5.282;2023-04-07T12:06:31;15.00;99.90
27667;DHT22;15074;50.940;5.282;2023-04-07T12:09:00;14.90;99.90
27667;DHT22;15074;50.940;5.282;2023-04-07T12:11:26;14.50;99.90
27667;DHT22;15074;50.940;5.282;2023-04-07T12:13:52;14.30;99.90
27667;DHT22;15074;50.940;5.282;2023-04-07T12:16:19;13.80;99.90
27667;DHT22;15074;50.940;5.282;2023-04-07T12:18:46;13.60;99.90
27667;DHT22;15074;50.940;5.282;2023-04-07T12:21:11;13.30;99.90
27667;DHT22;15074;50.940;5.282;2023-04-07T12:23:37;13.20;99.90
27667;DHT22;15074;50.940;5.282;2023-04-07T12:26:03;13.20;99.90
27667;DHT22;15074;50.940;5.282;2023-04-07T12:28:29;12.90;99.90
27667;DHT22;15074;50.940;5.282;2023-04-07T12:30:55;12.70;99.90
27667;DHT22;15074;50.940;5.282;2023-04-07T12:33:21;12.70;99.90
27667;DHT22;15074;50.940;5.282;2023-04-07T12:35:47;12.90;99.90
27667;DHT22;15074;50.940;5.282;2023-04-07T12:38:13;12.90;99.90
27667;DHT22;15074;50.940;5.282;2023-04-07T12:40:38;12.90;99.90
27667;DHT22;15074;50.940;5.282;2023-04-07T12:43:04;13.00;99.90
27667;DHT22;15074;50.940;5.282;2023-04-07T12:45:30;13.10;99.90
27667;DHT22;15074;50.940;5.282;2023-04-07T12:47:57;13.10;99.90
27667;DHT22;15074;50.940;5.282;2023-04-07T12:50:23;12.90;99.90
27667;DHT22;15074;50.940;5.282;2023-04-07T12:52:50;12.90;99.90
27667;DHT22;15074;50.940;5.282;2023-04-07T12:55:19;12.90;99.90
27667;DHT22;15074;50.940;5.282;2023-04-07T12:57:45;12.90;99.90
27667;DHT22;15074;50.940;5.282;2023-04-07T13:00:12;13.20;99.90
27667;DHT22;15074;50.940;5.282;2023-04-07T13:02:38;13.00;99.90
27667;DHT22;15074;50.940;5.282;2023-04-07T13:05:05;13.20;99.90
27667;DHT22;15074;50.940;5.282;2023-04-07T13:07:31;13.40;99.90
27667;DHT22;15074;50.940;5.282;2023-04-07T13:09:59;13.50;99.90
27667;DHT22;15074;50.940;5.282;2023-04-07T13:12:25;13.70;99.90
27667;DHT22;15074;50.940;5.282;2023-04-07T13:14:50;13.50;99.90
27667;DHT22;15074;50.940;5.282;2023-04-07T13:17:16;13.60;99.90
27667;DHT22;15074;50.940;5.282;2023-04-07T13:19:43;13.70;99.90
27667;DHT22;15074;50.940;5.282;2023-04-07T13:22:11;13.40;99.90
27667;DHT22;15074;50.940;5.282;2023-04-07T13:24:36;13.40;99.90
27667;DHT22;15074;50.940;5.282;2023-04-07T13:27:03;13.80;99.90
27667;DHT22;15074;50.940;5.282;2023-04-07T13:29:29;13.90;99.90
27667;DHT22;15074;50.940;5.282;2023-04-07T13:32:04;13.90;99.90
27667;DHT22;15074;50.940;5.282;2023-04-07T13:34:31;14.20;99.90
27667;DHT22;15074;50.940;5.282;2023-04-07T13:36:57;14.50;99.90
27667;DHT22;15074;50.940;5.282;2023-04-07T13:39:22;14.70;99.90
27667;DHT22;15074;50.940;5.282;2023-04-07T13:41:48;14.80;99.90
27667;DHT22;15074;50.940;5.282;2023-04-07T13:44:13;14.80;99.90
27667;DHT22;15074;50.940;5.282;2023-04-07T13:46:39;14.80;99.90
27667;DHT22;15074;50.940;5.282;2023-04-07T13:49:05;14.50;99.90
27667;DHT22;15074;50.940;5.282;2023-04-07T13:51:31;14.30;99.90
27667;DHT22;15074;50.940;5.282;2023-04-07T13:53:58;14.20;99.90
27667;DHT22;15074;50.940;5.282;2023-04-07T13:56:24;14.30;99.90
27667;DHT22;15074;50.940;5.282;2023-04-07T13:58:50;14.00;99.90
27667;DHT22;15074;50.940;5.282;2023-04-07T14:01:16;13.60;99.90
27667;DHT22;15074;50.940;5.282;2023-04-07T14:03:42;13.70;99.90
27667;DHT22;15074;50.940;5.282;2023-04-07T14:06:07;13.70;99.90
27667;DHT22;15074;50.940;5.282;2023-04-07T14:08:33;14.00;99.90
27667;DHT22;15074;50.940;5.282;2023-04-07T14:10:58;14.10;99.90
27667;DHT22;15074;50.940;5.282;2023-04-07T14:13:24;13.90;99.90
27667;DHT22;15074;50.940;5.282;2023-04-07T14:15:50;13.80;99.90
27667;DHT22;15074;50.940;5.282;2023-04-07T14:18:17;13.80;99.90
27667;DHT22;15074;50.940;5.282;2023-04-07T14:20:43;13.90;99.90
27667;DHT22;15074;50.940;5.282;2023-04-07T14:23:09;14.10;99.90
27667;DHT22;15074;50.940;5.282;2023-04-07T14:25:35;14.10;99.90
27667;DHT22;15074;50.940;5.282;2023-04-07T14:28:01;14.10;99.90
27667;DHT22;15074;50.940;5.282;2023-04-07T14:30:27;14.00;99.90
27667;DHT22;15074;50.940;5.282;2023-04-07T14:32:52;14.20;99.90
27667;DHT22;15074;50.940;5.282;2023-04-07T14:35:18;14.10;99.90
27667;DHT22;15074;50.940;5.282;2023-04-07T14:37:44;13.80;99.90
27667;DHT22;15074;50.940;5.282;2023-04-07T14:40:11;13.40;99.90
27667;DHT22;15074;50.940;5.282;2023-04-07T14:42:37;13.10;99.90
27667;DHT22;15074;50.940;5.282;2023-04-07T14:45:02;12.70;99.90
27667;DHT22;15074;50.940;5.282;2023-04-07T14:47:28;12.70;99.90
27667;DHT22;15074;50.940;5.282;2023-04-07T14:49:54;12.70;99.90
27667;DHT22;15074;50.940;5.282;2023-04-07T14:52:20;12.40;99.90
27667;DHT22;15074;50.940;5.282;2023-04-07T14:54:46;12.30;99.90
27667;DHT22;15074;50.940;5.282;2023-04-07T14:57:12;12.50;99.90
27667;DHT22;15074;50.940;5.282;2023-04-07T14:59:37;12.50;99.90
27667;DHT22;15074;50.940;5.282;2023-04-07T15:02:03;12.70;99.90
27667;DHT22;15074;50.940;5.282;2023-04-07T15:04:28;12.90;99.90
27667;DHT22;15074;50.940;5.282;2023-04-07T15:06:54;13.00;99.90
27667;DHT22;15074;50.940;5.282;2023-04-07T15:09:20;12.80;99.90
27667;DHT22;15074;50.940;5.282;2023-04-07T15:11:46;12.90;99.90
27667;DHT22;15074;50.940;5.282;2023-04-07T15:14:13;12.90;99.90
27667;DHT22;15074;50.940;5.282;2023-04-07T15:16:39;13.00;99.90
27667;DHT22;15074;50.940;5.282;2023-04-07T15:19:05;13.00;99.90
27667;DHT22;15074;50.940;5.282;2023-04-07T15:21:30;12.90;99.90
27667;DHT22;15074;50.940;5.282;2023-04-07T15:23:56;13.00;99.90
27667;DHT22;15074;50.940;5.282;2023-04-07T15:26:22;13.00;99.90
27667;DHT22;15074;50.940;5.282;2023-04-07T15:28:48;13.00;99.90
27667;DHT22;15074;50.940;5.282;2023-04-07T15:31:13;13.00;99.90
27667;DHT22;15074;50.940;5.282;2023-04-07T15:33:39;13.20;99.90
27667;DHT22;15074;50.940;5.282;2023-04-07T15:36:06;13.20;99.90
27667;DHT22;15074;50.940;5.282;2023-04-07T15:38:32;13.10;99.90
27667;DHT22;15074;50.940;5.282;2023-04-07T15:40:58;13.20;99.90
27667;DHT22;15074;50.940;5.282;2023-04-07T15:43:24;13.10;99.90
27667;DHT22;15074;50.940;5.282;2023-04-07T15:45:50;13.10;99.90
27667;DHT22;15074;50.940;5.282;2023-04-07T15:48:16;13.30;99.90
27667;DHT22;15074;50.940;5.282;2023-04-07T15:50:42;13.30;99.90
27667;DHT22;15074;50.940;5.282;2023-04-07T15:53:08;13.30;99.90
27667;DHT22;15074;50.940;5.282;2023-04-07T15:55:35;13.10;99.90